Time;durP1;ratioP1;P1;durP2;ratioP2;P2;SDS_P1;SDS_P2;PMS_P1;PMS_P2;Temp;Humidity;BMP_temperature;BMP_pressure;BME280_temperature;BME280_humidity;BME280_pressure;Samples;Min_cycle;Max_cycle;Signal;HPM_P1;HPM_P2
2023/03/14 00:01:29;;;;;;;9.40;5.80;;;;;;;9.12;67.17;98877.63;103706;279;39698;-70
2023/03/14 00:04:03;;;;;;;9.00;5.40;;;;;;;9.09;67.18;98879.73;103738;279;38259;-72
2023/03/14 00:06:37;;;;;;;9.40;5.50;;;;;;;9.10;67.19;98873.05;103734;279;40003;-70
2023/03/14 00:09:11;;;;;;;8.80;5.80;;;;;;;9.11;67.18;98863.74;103721;279;38272;-72
2023/03/14 00:11:45;;;;;;;9.70;6.10;;;;;;;9.12;67.04;98863.00;103726;279;38290;-72
2023/03/14 00:14:20;;;;;;;8.90;5.60;;;;;;;9.12;66.80;98852.91;103737;279;38259;-73
2023/03/14 00:16:54;;;;;;;8.30;5.10;;;;;;;9.12;66.74;98858.84;103732;279;39009;-73
2023/03/14 00:19:28;;;;;;;8.70;5.40;;;;;;;9.10;66.48;98852.68;103091;279;906149;-72
2023/03/14 00:22:02;;;;;;;7.80;5.30;;;;;;;9.08;66.56;98853.11;103715;279;40089;-74
2023/03/14 00:24:36;;;;;;;10.30;6.30;;;;;;;9.05;66.61;98854.00;103708;279;38298;-70
2023/03/14 00:27:10;;;;;;;9.70;5.90;;;;;;;9.01;66.39;98848.30;103722;279;39655;-72
2023/03/14 00:29:45;;;;;;;9.30;5.60;;;;;;;8.99;66.41;98847.20;103703;279;38530;-71
2023/03/14 00:32:18;;;;;;;9.00;5.30;;;;;;;8.98;66.49;98839.95;103715;279;39664;-70
2023/03/14 00:34:52;;;;;;;9.70;5.90;;;;;;;8.99;66.07;98837.30;103718;279;39553;-70
2023/03/14 00:37:26;;;;;;;10.40;5.70;;;;;;;9.01;66.47;98834.38;103674;279;38459;-73
2023/03/14 00:40:00;;;;;;;8.30;6.10;;;;;;;9.01;66.38;98838.40;103731;279;39801;-73
2023/03/14 00:42:34;;;;;;;12.40;6.10;;;;;;;9.00;66.35;98838.80;103722;279;39441;-71
2023/03/14 00:45:10;;;;;;;10.70;5.80;;;;;;;8.99;66.42;98834.52;103696;279;39981;-72
2023/03/14 00:47:45;;;;;;;10.20;6.00;;;;;;;8.97;66.38;98827.14;103756;279;40010;-72
2023/03/14 00:50:19;;;;;;;8.80;5.90;;;;;;;8.95;66.13;98811.45;103665;279;39664;-71
2023/03/14 00:52:53;;;;;;;9.40;5.80;;;;;;;8.93;66.02;98806.17;103683;279;39278;-72
2023/03/14 00:55:28;;;;;;;12.00;6.30;;;;;;;8.90;66.13;98801.63;103692;279;38492;-72
2023/03/14 00:58:02;;;;;;;9.10;6.20;;;;;;;8.87;66.37;98808.41;103730;279;40415;-69
2023/03/14 01:00:36;;;;;;;12.30;6.10;;;;;;;8.82;66.29;98810.41;103690;279;39814;-72
2023/03/14 01:03:10;;;;;;;9.30;5.90;;;;;;;8.78;66.39;98808.02;103566;280;39545;-72
2023/03/14 01:05:45;;;;;;;10.50;6.70;;;;;;;8.76;66.40;98803.95;103735;279;39148;-72
2023/03/14 01:08:19;;;;;;;10.20;6.30;;;;;;;8.74;66.46;98801.84;103758;267;38438;-71
2023/03/14 01:10:53;;;;;;;10.10;6.40;;;;;;;8.71;66.57;98809.11;103670;279;38218;-71
2023/03/14 01:13:27;;;;;;;10.70;6.30;;;;;;;8.67;66.53;98809.34;103711;279;38676;-71
2023/03/14 01:16:06;;;;;;;12.90;6.50;;;;;;;8.62;66.59;98808.21;103604;279;38500;-71
2023/03/14 01:18:40;;;;;;;11.60;6.70;;;;;;;8.56;66.66;98799.16;103691;279;38369;-73
2023/03/14 01:21:17;;;;;;;10.80;6.50;;;;;;;8.51;66.75;98804.66;103676;279;38314;-72
2023/03/14 01:23:52;;;;;;;10.10;6.30;;;;;;;8.45;66.84;98798.23;103739;279;39943;-72
2023/03/14 01:26:28;;;;;;;12.80;6.30;;;;;;;8.38;66.95;98795.08;103677;279;39694;-72
2023/03/14 01:29:03;;;;;;;9.10;6.00;;;;;;;8.35;66.95;98793.87;103709;279;38477;-72
2023/03/14 01:31:37;;;;;;;10.70;6.50;;;;;;;8.33;67.03;98791.69;103667;279;38509;-71
2023/03/14 01:34:11;;;;;;;8.70;6.30;;;;;;;8.31;67.17;98785.23;103750;279;38261;-72
2023/03/14 01:36:45;;;;;;;8.30;6.00;;;;;;;8.28;67.28;98784.67;103697;279;39677;-72
2023/03/14 01:39:19;;;;;;;11.80;6.80;;;;;;;8.24;67.28;98787.15;103724;279;39018;-72
2023/03/14 01:41:53;;;;;;;9.50;6.30;;;;;;;8.19;67.28;98783.42;103694;279;38798;-72
2023/03/14 01:44:26;;;;;;;9.50;6.60;;;;;;;8.13;67.32;98783.38;103731;279;38265;-72
2023/03/14 01:47:00;;;;;;;9.80;6.80;;;;;;;8.09;67.38;98785.70;103664;278;38322;-73
2023/03/14 01:49:36;;;;;;;9.80;6.00;;;;;;;8.04;67.45;98785.45;103729;279;38440;-72
2023/03/14 01:52:11;;;;;;;11.30;5.80;;;;;;;7.99;67.50;98784.30;103749;279;39641;-70
2023/03/14 01:54:47;;;;;;;11.00;6.60;;;;;;;7.97;67.60;98780.09;103744;279;38233;-72
2023/03/14 01:57:23;;;;;;;8.20;6.50;;;;;;;7.94;67.71;98779.55;103736;279;39431;-71
2023/03/14 02:00:00;;;;;;;9.80;6.10;;;;;;;7.92;67.76;98781.39;103739;279;39462;-72
2023/03/14 02:02:34;;;;;;;11.10;6.20;;;;;;;7.90;67.85;98777.16;103578;279;38314;-70
2023/03/14 02:05:09;;;;;;;11.70;7.10;;;;;;;7.87;67.82;98766.70;103674;279;38866;-73
2023/03/14 02:07:47;;;;;;;10.80;6.40;;;;;;;7.85;67.89;98765.42;103659;279;39149;-72
2023/03/14 02:10:22;;;;;;;10.00;6.40;;;;;;;7.82;67.78;98765.59;103682;279;38416;-72
2023/03/14 02:12:56;;;;;;;11.10;6.60;;;;;;;7.78;67.89;98757.30;103737;279;38658;-71
2023/03/14 02:15:30;;;;;;;11.70;6.40;;;;;;;7.72;67.92;98755.66;103733;279;39406;-70
2023/03/14 02:18:04;;;;;;;9.80;6.20;;;;;;;7.69;67.98;98758.08;103678;279;38408;-70
2023/03/14 02:20:41;;;;;;;10.20;6.60;;;;;;;7.67;68.03;98754.38;103602;279;188708;-71
2023/03/14 02:23:15;;;;;;;9.20;6.50;;;;;;;7.66;68.05;98757.39;103698;279;39407;-73
2023/03/14 02:25:52;;;;;;;11.50;6.10;;;;;;;7.64;68.18;98753.83;103629;279;39455;-70
2023/03/14 02:28:26;;;;;;;8.50;6.10;;;;;;;7.61;68.19;98742.40;103709;279;38829;-73
2023/03/14 02:31:00;;;;;;;13.00;6.70;;;;;;;7.57;68.19;98732.73;103704;279;38471;-73
2023/03/14 02:33:34;;;;;;;10.50;6.60;;;;;;;7.53;68.21;98726.50;103693;279;38481;-72
2023/03/14 02:36:12;;;;;;;11.00;6.40;;;;;;;7.48;68.33;98721.02;103543;279;190098;-71
2023/03/14 02:38:49;;;;;;;12.30;6.00;;;;;;;7.42;68.34;98712.13;103713;279;38992;-73
2023/03/14 02:41:24;;;;;;;10.10;5.80;;;;;;;7.38;68.53;98695.19;103676;279;38648;-73
2023/03/14 02:43:58;;;;;;;9.90;6.30;;;;;;;7.36;68.50;98689.56;103721;279;38276;-73
2023/03/14 02:46:32;;;;;;;10.10;6.40;;;;;;;7.34;68.53;98684.60;103665;279;39399;-73
2023/03/14 02:49:08;;;;;;;9.10;6.50;;;;;;;7.33;68.57;98687.60;103727;279;39687;-72
2023/03/14 02:51:43;;;;;;;10.30;6.30;;;;;;;7.31;68.64;98695.17;103722;279;39542;-72
2023/03/14 02:54:17;;;;;;;11.30;7.20;;;;;;;7.27;68.64;98695.76;103702;279;38946;-72
2023/03/14 02:56:51;;;;;;;10.70;6.30;;;;;;;7.21;68.72;98689.61;103620;280;38812;-71
2023/03/14 02:59:25;;;;;;;10.20;6.40;;;;;;;7.16;68.79;98686.23;103738;279;39860;-72
2023/03/14 03:01:59;;;;;;;9.80;6.10;;;;;;;7.13;68.85;98684.52;103700;279;39964;-71
2023/03/14 03:04:32;;;;;;;11.80;5.70;;;;;;;7.13;68.88;98685.02;103706;279;40169;-72
2023/03/14 03:07:06;;;;;;;9.60;6.30;;;;;;;7.14;68.94;98691.36;103641;280;38394;-72
2023/03/14 03:09:40;;;;;;;10.40;6.60;;;;;;;7.14;68.89;98696.73;103709;279;39033;-72
2023/03/14 03:12:14;;;;;;;9.40;6.20;;;;;;;7.16;68.92;98699.44;103601;280;38282;-73
2023/03/14 03:14:48;;;;;;;9.20;6.10;;;;;;;7.15;68.86;98699.30;103727;279;38431;-70
2023/03/14 03:17:22;;;;;;;8.80;6.20;;;;;;;7.14;68.83;98698.30;103692;279;39432;-72
2023/03/14 03:19:55;;;;;;;10.40;6.00;;;;;;;7.12;68.77;98696.00;103734;279;39543;-71
2023/03/14 03:22:30;;;;;;;10.70;6.40;;;;;;;7.09;68.73;98692.99;103686;307;38496;-70
2023/03/14 03:25:04;;;;;;;9.00;5.70;;;;;;;7.06;68.69;98687.45;103710;279;38523;-71
2023/03/14 03:27:38;;;;;;;10.30;5.60;;;;;;;7.03;68.73;98687.27;103649;278;38863;-72
2023/03/14 03:30:16;;;;;;;9.90;6.30;;;;;;;7.02;68.82;98684.54;103642;280;38864;-72
2023/03/14 03:32:51;;;;;;;10.20;5.90;;;;;;;7.02;68.67;98684.01;103633;279;188719;-70
2023/03/14 03:35:25;;;;;;;10.50;5.80;;;;;;;7.02;68.68;98678.81;103755;279;38914;-72
2023/03/14 03:37:59;;;;;;;9.20;6.10;;;;;;;7.00;68.71;98678.90;103735;279;38506;-72
2023/03/14 03:40:33;;;;;;;9.10;5.90;;;;;;;6.97;68.71;98683.41;103743;279;38851;-73
2023/03/14 03:43:07;;;;;;;9.30;5.70;;;;;;;6.90;68.75;98688.75;103731;279;38815;-72
2023/03/14 03:45:41;;;;;;;8.70;5.50;;;;;;;6.86;68.79;98686.89;103728;279;39312;-72
2023/03/14 03:48:15;;;;;;;8.80;5.90;;;;;;;6.83;68.85;98684.98;103723;279;38234;-72
2023/03/14 03:50:52;;;;;;;11.20;6.10;;;;;;;6.81;68.85;98682.11;103651;279;38449;-70
2023/03/14 03:53:29;;;;;;;10.60;5.80;;;;;;;6.80;68.91;98686.35;103767;279;39718;-71
2023/03/14 03:56:04;;;;;;;8.30;5.70;;;;;;;6.77;68.93;98678.69;103732;279;38389;-74
2023/03/14 03:58:39;;;;;;;8.90;5.60;;;;;;;6.75;69.11;98676.71;103710;267;38282;-74
2023/03/14 04:01:13;;;;;;;7.70;5.50;;;;;;;6.71;69.08;98673.43;103733;279;38395;-75
2023/03/14 04:03:47;;;;;;;8.10;5.40;;;;;;;6.66;69.11;98681.09;103596;279;39258;-74
2023/03/14 04:06:21;;;;;;;7.30;4.50;;;;;;;6.63;69.10;98674.85;103709;279;38346;-72
2023/03/14 04:08:56;;;;;;;7.60;4.90;;;;;;;6.60;69.08;98674.64;103715;279;38950;-72
2023/03/14 04:11:30;;;;;;;8.30;5.30;;;;;;;6.59;69.16;98682.84;103697;279;39011;-71
2023/03/14 04:14:04;;;;;;;8.30;5.50;;;;;;;6.60;69.09;98679.54;103731;279;39464;-73
2023/03/14 04:16:38;;;;;;;6.60;4.80;;;;;;;6.60;69.10;98691.31;103743;279;39676;-72
2023/03/14 04:19:13;;;;;;;7.80;4.80;;;;;;;6.57;69.02;98685.38;103767;279;39405;-70
2023/03/14 04:21:46;;;;;;;8.30;4.70;;;;;;;6.55;69.06;98680.63;103719;279;38234;-72
2023/03/14 04:24:20;;;;;;;10.00;4.90;;;;;;;6.52;69.14;98672.98;103723;279;40121;-72
2023/03/14 04:26:54;;;;;;;7.30;4.80;;;;;;;6.47;69.17;98670.05;103740;279;38496;-72
2023/03/14 04:29:28;;;;;;;6.40;4.30;;;;;;;6.46;69.07;98670.67;103715;267;38697;-71
2023/03/14 04:32:02;;;;;;;7.50;4.40;;;;;;;6.46;69.17;98678.27;103091;267;908527;-72
2023/03/14 04:34:36;;;;;;;7.60;4.60;;;;;;;6.45;69.10;98675.70;103694;279;39253;-71
2023/03/14 04:37:10;;;;;;;6.60;4.70;;;;;;;6.47;69.03;98676.85;103711;279;38683;-72
2023/03/14 04:39:44;;;;;;;6.80;4.40;;;;;;;6.47;69.02;98673.38;103687;279;38689;-73
2023/03/14 04:42:18;;;;;;;7.00;4.60;;;;;;;6.45;69.03;98665.50;103688;279;38636;-73
2023/03/14 04:44:52;;;;;;;9.50;4.70;;;;;;;6.44;69.04;98660.70;103599;279;38967;-71
2023/03/14 04:47:26;;;;;;;7.10;4.50;;;;;;;6.42;69.07;98654.20;103692;279;39667;-73
2023/03/14 04:50:00;;;;;;;7.80;4.50;;;;;;;6.44;68.99;98638.38;103734;279;39753;-71
2023/03/14 04:52:34;;;;;;;6.40;4.20;;;;;;;6.48;68.93;98636.08;103690;279;39663;-70
2023/03/14 04:55:10;;;;;;;7.30;4.50;;;;;;;6.53;68.96;98626.16;103754;279;39718;-73
2023/03/14 04:57:45;;;;;;;7.10;4.00;;;;;;;6.58;68.95;98617.38;103748;279;38514;-73
2023/03/14 05:00:20;;;;;;;6.60;4.10;;;;;;;6.64;68.70;98620.40;103691;279;39428;-74
2023/03/14 05:02:54;;;;;;;8.50;4.60;;;;;;;6.68;68.47;98619.30;103720;279;38922;-73
2023/03/14 05:05:28;;;;;;;8.00;4.60;;;;;;;6.73;68.36;98620.95;103690;279;39615;-72
2023/03/14 05:08:03;;;;;;;5.50;3.80;;;;;;;6.76;68.43;98618.77;103711;279;38380;-70
2023/03/14 05:10:37;;;;;;;7.20;4.30;;;;;;;6.79;68.21;98616.53;103565;279;175611;-71
2023/03/14 05:13:11;;;;;;;6.00;3.90;;;;;;;6.84;68.18;98606.38;103672;279;38272;-71
2023/03/14 05:15:44;;;;;;;6.90;4.50;;;;;;;6.88;67.99;98605.30;103693;279;38405;-71
2023/03/14 05:18:18;;;;;;;6.90;4.20;;;;;;;6.93;67.73;98598.61;103726;279;38772;-72
2023/03/14 05:20:54;;;;;;;5.90;4.10;;;;;;;6.98;67.93;98593.85;103713;279;40251;-70
2023/03/14 05:23:28;;;;;;;5.90;4.10;;;;;;;7.02;67.62;98594.17;103625;279;175265;-73
2023/03/14 05:26:03;;;;;;;7.60;4.30;;;;;;;7.07;67.38;98604.55;103737;279;39437;-73
2023/03/14 05:28:37;;;;;;;5.90;4.30;;;;;;;7.09;67.21;98608.55;103589;279;175546;-72
2023/03/14 05:31:18;;;;;;;5.70;4.40;;;;;;;7.12;67.00;98598.70;103622;279;38623;-74
2023/03/14 05:33:56;;;;;;;7.00;4.60;;;;;;;7.15;66.98;98588.32;103632;279;39636;-73
2023/03/14 05:36:31;;;;;;;6.50;4.20;;;;;;;7.20;67.02;98575.55;103675;279;38521;-71
2023/03/14 05:39:05;;;;;;;7.90;4.40;;;;;;;7.24;66.85;98571.35;103681;279;38705;-73
2023/03/14 05:41:39;;;;;;;5.00;3.90;;;;;;;7.28;66.70;98570.30;103621;280;38505;-70
2023/03/14 05:44:13;;;;;;;5.20;3.70;;;;;;;7.33;66.63;98566.52;103671;280;38811;-72
2023/03/14 05:46:48;;;;;;;7.80;4.20;;;;;;;7.44;66.14;98563.34;103754;279;38201;-73
2023/03/14 05:49:22;;;;;;;6.20;4.00;;;;;;;7.58;66.07;98556.67;103733;279;38446;-73
2023/03/14 05:51:57;;;;;;;7.30;4.20;;;;;;;7.74;65.75;98547.13;103723;279;38271;-73
2023/03/14 05:54:32;;;;;;;7.90;4.60;;;;;;;8.11;66.43;98548.71;103532;279;39053;-73
2023/03/14 05:57:06;;;;;;;5.70;3.90;;;;;;;8.73;64.75;98542.87;103560;284;175073;-74
2023/03/14 05:59:42;;;;;;;6.20;4.30;;;;;;;9.34;64.40;98535.29;103215;279;689814;-72
2023/03/14 06:02:16;;;;;;;6.50;4.00;;;;;;;10.09;63.57;98522.30;103757;279;39625;-74
2023/03/14 06:04:51;;;;;;;5.40;4.00;;;;;;;10.72;61.29;98511.15;103562;279;174981;-72
2023/03/14 06:07:25;;;;;;;5.70;4.00;;;;;;;11.30;60.94;98505.73;103799;279;38995;-70
2023/03/14 06:10:00;;;;;;;6.30;3.80;;;;;;;11.43;58.77;98506.95;103773;279;38528;-70
2023/03/14 06:12:35;;;;;;;6.70;4.10;;;;;;;11.10;56.40;98497.54;103776;279;39422;-71
2023/03/14 06:15:11;;;;;;;7.20;4.10;;;;;;;10.76;56.86;98505.68;103679;280;38558;-73
2023/03/14 06:17:46;;;;;;;6.90;4.80;;;;;;;10.42;56.96;98505.69;103709;280;38229;-73
2023/03/14 06:20:21;;;;;;;6.60;4.40;;;;;;;10.12;57.66;98506.92;103716;280;38398;-74
2023/03/14 06:22:56;;;;;;;5.90;4.60;;;;;;;9.90;58.12;98515.02;103689;280;39458;-72
2023/03/14 06:25:30;;;;;;;6.50;4.30;;;;;;;9.77;58.33;98517.05;103702;280;38243;-72
2023/03/14 06:28:05;;;;;;;7.20;4.50;;;;;;;9.67;58.76;98527.96;103677;280;38704;-73
2023/03/14 06:30:39;;;;;;;7.60;4.50;;;;;;;9.58;58.91;98534.48;103519;280;38330;-72
2023/03/14 06:33:13;;;;;;;9.10;4.30;;;;;;;9.47;59.06;98531.15;103570;281;38483;-72
2023/03/14 06:35:48;;;;;;;5.60;4.00;;;;;;;9.60;60.07;98523.58;103721;280;38478;-68
2023/03/14 06:38:22;;;;;;;7.10;4.20;;;;;;;9.83;59.87;98524.67;103715;280;38511;-72
2023/03/14 06:40:56;;;;;;;5.80;4.20;;;;;;;10.15;59.84;98525.42;103686;280;38484;-70
2023/03/14 06:43:31;;;;;;;6.60;4.40;;;;;;;10.52;59.45;98517.39;103661;280;38808;-71
2023/03/14 06:46:06;;;;;;;7.20;4.30;;;;;;;10.95;58.90;98517.39;103560;280;188638;-71
2023/03/14 06:48:41;;;;;;;7.30;4.00;;;;;;;11.46;58.79;98507.20;103692;280;38618;-74
2023/03/14 06:51:15;;;;;;;6.70;3.90;;;;;;;11.78;56.38;98498.80;103656;280;38246;-73
2023/03/14 06:53:50;;;;;;;6.20;3.70;;;;;;;11.99;56.26;98504.81;103651;280;38440;-72
2023/03/14 06:56:24;;;;;;;6.60;3.80;;;;;;;12.12;54.87;98509.41;103623;280;38971;-73
2023/03/14 06:58:58;;;;;;;6.80;4.60;;;;;;;12.10;54.38;98509.95;103682;269;40451;-74
2023/03/14 07:01:34;;;;;;;5.60;4.20;;;;;;;12.07;54.15;98525.70;103637;280;38525;-74
2023/03/14 07:04:09;;;;;;;10.50;4.70;;;;;;;12.02;54.19;98530.27;103670;280;38243;-71
2023/03/14 07:06:44;;;;;;;7.00;3.70;;;;;;;11.95;54.47;98537.59;103506;280;39131;-71
2023/03/14 07:09:18;;;;;;;5.50;4.00;;;;;;;11.94;54.44;98541.88;103720;280;38227;-73
2023/03/14 07:11:52;;;;;;;4.80;3.90;;;;;;;11.98;54.64;98547.14;103737;279;38265;-73
2023/03/14 07:14:26;;;;;;;4.70;3.80;;;;;;;12.10;54.46;98545.42;103734;279;38236;-73
2023/03/14 07:17:00;;;;;;;5.60;3.90;;;;;;;12.23;54.50;98557.56;103718;279;38322;-73
2023/03/14 07:19:35;;;;;;;6.10;3.50;;;;;;;12.40;53.97;98553.17;103659;279;39115;-75
2023/03/14 07:22:08;;;;;;;5.40;4.10;;;;;;;12.61;53.21;98547.52;103712;279;38139;-74
2023/03/14 07:24:42;;;;;;;6.80;4.00;;;;;;;12.91;54.02;98531.63;103734;279;38240;-73
2023/03/14 07:27:17;;;;;;;6.30;4.00;;;;;;;13.43;54.57;98535.15;103716;279;38506;-72
2023/03/14 07:29:51;;;;;;;4.40;3.40;;;;;;;13.98;53.56;98533.54;103668;279;175105;-71
2023/03/14 07:32:28;;;;;;;5.40;3.90;;;;;;;14.37;51.92;98531.02;103823;279;39566;-74
2023/03/14 07:35:04;;;;;;;5.40;3.80;;;;;;;14.77;51.68;98524.29;103781;279;38706;-73
2023/03/14 07:37:39;;;;;;;6.40;3.80;;;;;;;15.34;51.15;98521.00;103762;279;38239;-71
2023/03/14 07:40:16;;;;;;;6.40;4.70;;;;;;;15.99;51.54;98521.58;103675;267;175050;-74
2023/03/14 07:42:51;;;;;;;5.80;3.60;;;;;;;16.70;48.78;98519.04;103715;279;38710;-73
2023/03/14 07:45:25;;;;;;;6.30;3.90;;;;;;;17.03;47.78;98524.75;103750;279;38259;-73
2023/03/14 07:47:59;;;;;;;7.10;4.20;;;;;;;17.18;45.40;98527.72;103692;279;38322;-73
2023/03/14 07:50:36;;;;;;;6.20;3.90;;;;;;;17.19;45.51;98522.69;103718;279;38484;-74
2023/03/14 07:53:10;;;;;;;7.20;3.80;;;;;;;17.27;45.90;98520.73;103716;279;39430;-73
2023/03/14 07:55:45;;;;;;;9.20;3.90;;;;;;;17.83;46.66;98507.09;103743;279;39428;-74
2023/03/14 07:58:20;;;;;;;6.40;4.00;;;;;;;18.48;44.30;98498.64;103761;279;39916;-72
2023/03/14 08:00:55;;;;;;;5.40;3.80;;;;;;;19.11;43.87;98501.25;103733;279;39379;-72
2023/03/14 08:03:32;;;;;;;6.70;3.80;;;;;;;19.84;43.25;98510.73;103694;279;38226;-74
2023/03/14 08:06:07;;;;;;;5.60;4.10;;;;;;;20.34;42.14;98514.34;103694;279;38339;-71
2023/03/14 08:08:41;;;;;;;6.30;3.60;;;;;;;20.52;40.22;98512.55;103702;279;38248;-71
2023/03/14 08:11:15;;;;;;;7.10;3.80;;;;;;;20.41;40.14;98512.14;103716;279;38367;-70
2023/03/14 08:13:51;;;;;;;6.60;3.40;;;;;;;20.61;39.78;98514.14;103695;279;38714;-70
2023/03/14 08:16:25;;;;;;;8.70;3.60;;;;;;;20.71;38.70;98520.11;103696;279;39534;-72
2023/03/14 08:18:59;;;;;;;8.00;3.50;;;;;;;20.48;38.39;98526.83;103695;279;38809;-72
2023/03/14 08:21:33;;;;;;;7.90;3.40;;;;;;;20.41;39.34;98523.55;103642;279;39286;-71
2023/03/14 08:24:07;;;;;;;7.10;3.30;;;;;;;20.43;39.55;98517.20;103693;279;38308;-71
2023/03/14 08:26:41;;;;;;;4.30;3.20;;;;;;;20.49;39.27;98520.87;103699;279;38255;-73
2023/03/14 08:29:16;;;;;;;5.80;3.20;;;;;;;20.48;38.58;98520.15;103738;279;39399;-71
2023/03/14 08:31:50;;;;;;;7.70;3.60;;;;;;;20.31;38.71;98524.08;103708;268;38352;-75
2023/03/14 08:34:24;;;;;;;7.10;3.30;;;;;;;20.05;38.30;98525.95;103738;279;39401;-73
2023/03/14 08:36:58;;;;;;;5.80;3.20;;;;;;;19.71;37.97;98534.72;103715;279;38515;-73
2023/03/14 08:39:31;;;;;;;5.80;3.80;;;;;;;19.23;38.34;98526.04;103761;279;38397;-74
2023/03/14 08:42:05;;;;;;;5.90;3.50;;;;;;;18.90;39.29;98532.04;103697;279;38265;-74
2023/03/14 08:44:41;;;;;;;7.40;3.30;;;;;;;18.77;39.94;98531.46;103714;279;39886;-74
2023/03/14 08:47:15;;;;;;;4.30;3.90;;;;;;;18.71;40.44;98528.16;101582;279;3013733;-74
2023/03/14 08:49:49;;;;;;;4.90;3.60;;;;;;;18.68;40.22;98527.94;103700;279;39042;-73
2023/03/14 08:52:23;;;;;;;4.10;3.50;;;;;;;18.61;39.59;98524.00;103671;279;39332;-74
2023/03/14 08:54:57;;;;;;;5.10;3.60;;;;;;;18.50;39.48;98520.57;103751;279;39032;-73
2023/03/14 08:57:31;;;;;;;7.00;3.60;;;;;;;18.20;39.97;98528.33;103662;279;38288;-73
2023/03/14 09:00:11;;;;;;;6.30;3.70;;;;;;;18.10;40.36;98523.27;103620;269;38431;-73
2023/03/14 09:02:48;;;;;;;5.50;3.40;;;;;;;18.20;40.44;98526.51;103704;279;40003;-73
2023/03/14 09:05:22;;;;;;;5.80;3.80;;;;;;;18.19;40.71;98521.55;103684;279;38244;-74
2023/03/14 09:07:56;;;;;;;5.50;3.40;;;;;;;18.28;40.95;98517.59;103720;279;38675;-73
2023/03/14 09:10:30;;;;;;;7.10;3.60;;;;;;;18.39;40.54;98519.25;103685;279;38481;-74
2023/03/14 09:13:04;;;;;;;4.90;3.30;;;;;;;18.32;40.51;98516.39;103661;279;38595;-74
2023/03/14 09:15:38;;;;;;;5.40;3.70;;;;;;;18.19;40.51;98512.01;103726;279;39470;-75
2023/03/14 09:18:13;;;;;;;5.80;3.50;;;;;;;17.99;40.82;98510.98;103698;279;38432;-73
2023/03/14 09:20:47;;;;;;;4.70;3.30;;;;;;;17.84;41.30;98505.73;103720;279;38233;-73
2023/03/14 09:23:20;;;;;;;5.10;3.30;;;;;;;17.72;41.16;98498.56;103706;279;39275;-74
2023/03/14 09:25:58;;;;;;;7.40;3.30;;;;;;;17.60;40.77;98499.05;103687;279;38480;-73
2023/03/14 09:28:32;;;;;;;3.80;2.80;;;;;;;17.49;40.82;98496.73;103699;279;39869;-74
2023/03/14 09:31:11;;;;;;;4.60;3.00;;;;;;;17.40;40.83;98493.06;103679;279;38658;-73
2023/03/14 09:33:45;;;;;;;6.20;3.10;;;;;;;17.31;41.14;98490.19;103686;279;38636;-74
2023/03/14 09:36:19;;;;;;;5.20;2.80;;;;;;;17.26;41.88;98489.94;103712;279;38238;-74
2023/03/14 09:38:53;;;;;;;6.30;3.20;;;;;;;17.29;41.83;98484.41;103700;279;38454;-73
2023/03/14 09:41:29;;;;;;;5.20;3.40;;;;;;;17.26;41.85;98486.95;103664;280;38260;-74
2023/03/14 09:44:09;;;;;;;5.70;3.50;;;;;;;17.24;42.08;98482.40;103679;279;38403;-71
2023/03/14 09:46:44;;;;;;;5.20;3.00;;;;;;;17.22;42.14;98471.84;103711;279;38818;-73
2023/03/14 09:49:21;;;;;;;7.50;3.20;;;;;;;17.24;41.84;98474.86;103730;279;38221;-74
2023/03/14 09:51:57;;;;;;;5.50;3.10;;;;;;;17.23;42.02;98471.55;103741;279;38243;-74
2023/03/14 09:54:38;;;;;;;5.70;3.20;;;;;;;17.26;42.57;98462.47;103721;279;38798;-73
2023/03/14 09:57:19;;;;;;;6.10;3.20;;;;;;;17.31;42.56;98456.71;103790;279;38253;-73
2023/03/14 09:59:54;;;;;;;4.90;3.20;;;;;;;17.38;42.22;98453.24;103748;279;39419;-73
2023/03/14 10:02:33;;;;;;;5.20;3.00;;;;;;;17.57;42.49;98449.40;103696;279;40256;-73
2023/03/14 10:05:14;;;;;;;5.60;3.00;;;;;;;17.77;42.24;98444.33;103728;279;38811;-74
2023/03/14 10:07:51;;;;;;;8.40;3.80;;;;;;;17.92;41.93;98440.71;103666;279;38787;-73
2023/03/14 10:10:26;;;;;;;6.50;3.40;;;;;;;18.01;42.27;98432.18;103647;279;38809;-73
2023/03/14 10:13:05;;;;;;;5.20;3.10;;;;;;;18.06;42.37;98445.70;103725;279;39316;-73
2023/03/14 10:15:40;;;;;;;4.70;3.00;;;;;;;18.17;42.05;98446.52;103649;279;38287;-73
2023/03/14 10:18:15;;;;;;;8.40;4.10;;;;;;;18.24;42.23;98446.13;103641;279;38429;-72
2023/03/14 10:21:02;;;;;;;10.40;3.50;;;;;;;18.27;41.78;98442.69;103554;280;38474;-74
2023/03/14 10:23:36;;;;;;;5.40;3.50;;;;;;;18.19;41.90;98444.73;103586;279;174929;-74
2023/03/14 10:26:18;;;;;;;5.60;3.40;;;;;;;18.06;41.49;98437.05;103654;279;38497;-73
2023/03/14 10:28:54;;;;;;;5.40;3.10;;;;;;;17.95;41.36;98435.96;103671;279;38519;-73
2023/03/14 10:31:29;;;;;;;7.60;3.30;;;;;;;17.89;41.67;98437.54;103673;279;38963;-73
2023/03/14 10:34:05;;;;;;;6.80;3.10;;;;;;;17.83;42.05;98438.47;103705;279;39581;-73
2023/03/14 10:36:39;;;;;;;5.60;2.90;;;;;;;17.79;42.31;98437.60;103649;279;38262;-73
2023/03/14 10:39:43;;;;;;;5.30;3.10;;;;;;;17.74;42.22;98439.33;103683;279;38363;-73
2023/03/14 10:42:22;;;;;;;6.30;3.10;;;;;;;17.89;43.03;98432.60;103765;279;40352;-71
2023/03/14 10:44:59;;;;;;;5.10;3.10;;;;;;;18.17;43.12;98425.91;103781;279;39797;-74
2023/03/14 10:47:33;;;;;;;4.90;3.20;;;;;;;18.36;42.71;98426.77;103760;279;38671;-74
2023/03/14 10:50:27;;;;;;;5.80;3.10;;;;;;;18.46;42.19;98422.09;103750;279;38284;-73
2023/03/14 10:53:05;;;;;;;3.90;2.70;;;;;;;18.47;41.65;98423.95;103756;279;38230;-73
2023/03/14 10:55:47;;;;;;;4.70;3.20;;;;;;;18.43;41.26;98413.23;103742;279;38694;-73
2023/03/14 10:58:29;;;;;;;4.90;2.90;;;;;;;18.35;41.57;98415.59;103756;279;38595;-73
2023/03/14 11:01:22;;;;;;;6.70;2.90;;;;;;;18.24;41.24;98414.56;103707;279;39374;-73
2023/03/14 11:04:00;;;;;;;4.80;3.10;;;;;;;18.09;41.28;98413.48;103764;279;40000;-73
2023/03/14 11:06:40;;;;;;;3.90;3.20;;;;;;;18.02;41.88;98409.95;103757;279;39952;-73
2023/03/14 11:09:20;;;;;;;7.50;3.40;;;;;;;17.94;41.94;98416.90;103676;279;39962;-73
2023/03/14 11:11:53;;;;;;;4.70;3.20;;;;;;;17.85;42.06;98410.73;103741;279;38827;-74
2023/03/14 11:14:33;;;;;;;6.60;3.00;;;;;;;17.76;42.04;98410.92;103762;279;39649;-73
2023/03/14 11:17:12;;;;;;;5.60;3.30;;;;;;;17.65;42.04;98421.84;103762;279;38531;-73
2023/03/14 11:20:01;;;;;;;5.30;2.70;;;;;;;17.50;41.76;98427.40;103800;279;38417;-72
2023/03/14 11:22:41;;;;;;;5.80;3.20;;;;;;;17.34;42.27;98433.15;103819;279;38232;-73
2023/03/14 11:25:25;;;;;;;4.60;3.20;;;;;;;17.24;42.81;98436.24;103681;279;39445;-74
2023/03/14 11:28:09;;;;;;;7.60;3.80;;;;;;;17.08;43.05;98441.50;103669;279;38484;-73
2023/03/14 11:30:46;;;;;;;5.70;3.50;;;;;;;16.90;43.07;98453.07;103711;279;38259;-74
2023/03/14 11:33:23;;;;;;;7.70;3.20;;;;;;;16.70;43.57;98451.55;103727;279;39589;-74
2023/03/14 11:36:03;;;;;;;5.40;3.50;;;;;;;16.53;43.70;98446.45;103739;279;38321;-74
2023/03/14 11:38:41;;;;;;;6.30;3.50;;;;;;;16.38;44.11;98441.04;103661;279;172298;-73
2023/03/14 11:41:17;;;;;;;12.20;5.10;;;;;;;16.30;44.38;98432.46;103705;279;39725;-72
2023/03/14 11:43:53;;;;;;;9.80;5.30;;;;;;;16.26;44.74;98430.36;103728;267;38355;-73
2023/03/14 11:46:29;;;;;;;6.90;3.90;;;;;;;16.30;44.87;98430.33;103721;279;38829;-73
2023/03/14 11:49:07;;;;;;;6.80;4.20;;;;;;;16.32;44.37;98430.13;103779;279;39486;-74
2023/03/14 11:51:43;;;;;;;5.70;3.90;;;;;;;16.28;44.25;98432.95;103744;279;39645;-72
2023/03/14 11:54:20;;;;;;;8.50;4.30;;;;;;;16.20;44.29;98433.15;103757;279;38228;-74
2023/03/14 11:56:57;;;;;;;7.60;4.20;;;;;;;16.15;44.62;98440.35;103762;279;40739;-74
2023/03/14 11:59:33;;;;;;;6.80;3.90;;;;;;;16.13;44.63;98451.04;103746;279;39723;-74
2023/03/14 12:02:10;;;;;;;6.90;4.10;;;;;;;16.08;44.87;98456.96;103737;279;39973;-74
2023/03/14 12:04:53;;;;;;;6.80;3.80;;;;;;;16.07;45.16;98451.80;103739;279;37958;-74
2023/03/14 12:07:30;;;;;;;7.40;4.10;;;;;;;16.11;45.58;98446.14;103750;279;38417;-74
2023/03/14 12:10:04;;;;;;;7.70;4.40;;;;;;;16.20;45.71;98449.04;103736;279;38821;-74
2023/03/14 12:12:40;;;;;;;6.60;4.10;;;;;;;16.29;45.63;98433.59;103703;279;39448;-74
2023/03/14 12:15:23;;;;;;;7.90;4.40;;;;;;;16.38;45.37;98416.34;103792;279;39476;-72